createdAt,value
2023-03-05T00:01:08.010Z,20.38
2023-03-05T00:03:34.834Z,20.58
2023-03-05T00:06:02.010Z,23.17
2023-03-05T00:08:31.213Z,20.30
2023-03-05T00:11:03.060Z,23.08
2023-03-05T00:13:30.043Z,21.48
2023-03-05T00:15:57.188Z,22.85
2023-03-05T00:18:24.335Z,20.65
2023-03-05T00:20:51.407Z,19.33
2023-03-05T00:23:18.208Z,20.35
2023-03-05T00:25:46.646Z,19.45
2023-03-05T00:28:13.484Z,22.63
2023-03-05T00:30:40.782Z,19.08
2023-03-05T00:33:08.049Z,21.48
2023-03-05T00:35:42.338Z,21.13
2023-03-05T00:38:09.472Z,21.60
2023-03-05T00:40:38.065Z,21.70
2023-03-05T00:43:04.968Z,20.25
2023-03-05T00:45:32.094Z,17.23
2023-03-05T00:47:58.835Z,21.17
2023-03-05T00:50:26.251Z,21.83
2023-03-05T00:52:53.035Z,19.50
2023-03-05T00:55:20.199Z,22.52
2023-03-05T00:57:47.042Z,19.42
2023-03-05T01:00:14.410Z,19.95
2023-03-05T01:02:41.319Z,19.55
2023-03-05T01:05:10.857Z,19.40
2023-03-05T01:07:37.668Z,22.40
2023-03-05T01:10:05.246Z,21.00
2023-03-05T01:12:32.039Z,24.77
2023-03-05T01:14:59.148Z,19.20
2023-03-05T01:17:26.698Z,16.92
2023-03-05T01:19:53.767Z,20.50
2023-03-05T01:22:20.547Z,22.15
2023-03-05T01:24:47.668Z,16.75
2023-03-05T01:27:14.450Z,17.58
2023-03-05T01:29:41.541Z,16.42
2023-03-05T01:32:08.355Z,17.08
2023-03-05T01:34:37.382Z,17.52
2023-03-05T01:37:04.186Z,17.15
2023-03-05T01:39:31.319Z,18.55
2023-03-05T01:41:58.107Z,17.65
2023-03-05T01:44:27.650Z,18.23
2023-03-05T01:46:54.456Z,17.80
2023-03-05T01:49:24.161Z,18.92
2023-03-05T01:52:23.586Z,17.30
2023-03-05T01:54:52.299Z,16.48
2023-03-05T01:57:25.151Z,16.42
2023-03-05T01:59:55.755Z,18.77
2023-03-05T02:02:22.602Z,17.02
2023-03-05T02:04:56.228Z,18.13
2023-03-05T02:07:22.999Z,17.65
2023-03-05T02:09:50.204Z,19.45
2023-03-05T02:12:16.982Z,19.75
2023-03-05T02:14:46.202Z,16.77
2023-03-05T02:17:13.196Z,18.10
2023-03-05T02:20:10.959Z,17.67
2023-03-05T02:22:37.836Z,20.60
2023-03-05T02:25:16.132Z,20.30
2023-03-05T02:27:43.475Z,22.10
2023-03-05T02:30:11.194Z,21.75
2023-03-05T02:32:38.114Z,20.15
2023-03-05T02:35:05.624Z,18.23
2023-03-05T02:37:52.487Z,18.85
2023-03-05T02:40:19.564Z,22.60
2023-03-05T02:42:46.812Z,21.33
2023-03-05T02:45:13.901Z,15.25
2023-03-05T02:47:40.768Z,18.40
2023-03-05T02:50:08.480Z,20.10
2023-03-05T02:52:35.312Z,16.67
2023-03-05T02:55:02.428Z,19.15
2023-03-05T02:57:29.205Z,16.83
2023-03-05T02:59:56.304Z,20.00
2023-03-05T03:02:23.157Z,18.35
2023-03-05T03:04:50.300Z,17.52
2023-03-05T03:07:17.071Z,17.35
2023-03-05T03:09:44.213Z,18.25
2023-03-05T03:12:11.315Z,17.50
2023-03-05T03:14:39.630Z,18.35
2023-03-05T03:17:07.383Z,15.77
2023-03-05T03:19:35.465Z,19.15
2023-03-05T03:22:02.385Z,16.48
2023-03-05T03:24:30.347Z,15.90
2023-03-05T03:26:57.281Z,15.65
2023-03-05T03:29:24.600Z,20.25
2023-03-05T03:31:51.391Z,18.08
2023-03-05T03:34:18.669Z,19.77
2023-03-05T03:36:45.592Z,16.73
2023-03-05T03:39:14.083Z,15.98
2023-03-05T03:41:41.875Z,15.23
2023-03-05T03:44:10.686Z,16.00
2023-03-05T03:46:38.329Z,15.73
2023-03-05T03:49:05.926Z,15.90
2023-03-05T03:51:32.793Z,16.35
2023-03-05T03:54:00.236Z,18.48
2023-03-05T03:56:27.149Z,15.23
2023-03-05T03:58:54.356Z,12.75
2023-03-05T04:01:21.491Z,14.50
2023-03-05T04:03:48.608Z,12.77
2023-03-05T04:06:15.447Z,14.27
2023-03-05T04:08:42.610Z,13.63
2023-03-05T04:11:09.389Z,12.80
2023-03-05T04:13:36.502Z,14.82
2023-03-05T04:16:03.329Z,11.15
2023-03-05T04:18:32.464Z,12.30
2023-03-05T04:20:59.358Z,14.30
2023-03-05T04:23:26.466Z,13.73
2023-03-05T04:25:53.266Z,15.75
2023-03-05T04:28:20.384Z,14.55
2023-03-05T04:30:47.243Z,15.15
2023-03-05T04:33:14.402Z,13.60
2023-03-05T04:35:41.172Z,13.90
2023-03-05T04:38:08.305Z,13.65
2023-03-05T04:40:35.251Z,13.73
2023-03-05T04:43:02.569Z,14.32
2023-03-05T04:45:29.433Z,13.05
2023-03-05T04:47:56.482Z,12.20
2023-03-05T04:50:23.375Z,17.33
2023-03-05T04:52:50.503Z,15.35
2023-03-05T04:55:17.734Z,15.45
2023-03-05T04:57:44.786Z,15.43
2023-03-05T05:00:15.976Z,18.08
2023-03-05T05:02:44.403Z,18.45
2023-03-05T05:05:25.612Z,14.95
2023-03-05T05:07:56.803Z,15.70
2023-03-05T05:10:24.655Z,15.45
2023-03-05T05:12:51.751Z,14.57
2023-03-05T05:15:18.634Z,16.50
2023-03-05T05:17:46.019Z,17.15
2023-03-05T05:20:14.293Z,16.83
2023-03-05T05:22:41.544Z,15.65
2023-03-05T05:25:08.705Z,13.27
2023-03-05T05:27:35.980Z,15.52
2023-03-05T05:30:04.120Z,16.45
2023-03-05T05:32:31.177Z,14.73
2023-03-05T05:34:58.325Z,15.88
2023-03-05T05:37:25.777Z,15.05
2023-03-05T05:39:52.655Z,16.13
2023-03-05T05:42:20.621Z,16.90
2023-03-05T05:44:47.679Z,18.83
2023-03-05T05:47:15.694Z,13.00
2023-03-05T05:49:42.523Z,15.00
2023-03-05T05:52:09.744Z,17.73
2023-03-05T05:54:36.564Z,14.93
2023-03-05T05:57:03.774Z,17.23
2023-03-05T05:59:30.515Z,14.75
2023-03-05T06:01:57.628Z,14.77
2023-03-05T06:04:24.392Z,14.88
2023-03-05T06:06:51.434Z,15.80
2023-03-05T06:09:18.257Z,11.98
2023-03-05T06:11:45.400Z,14.98
2023-03-05T06:14:12.422Z,17.08
2023-03-05T06:16:40.100Z,15.57
2023-03-05T06:19:07.023Z,17.67
2023-03-05T06:21:34.100Z,17.20
2023-03-05T06:24:01.090Z,15.75
2023-03-05T06:26:28.153Z,16.25
2023-03-05T06:28:55.094Z,18.95
2023-03-05T06:31:23.437Z,16.05
2023-03-05T06:33:50.341Z,13.80
2023-03-05T06:36:18.737Z,16.40
2023-03-05T06:38:46.947Z,19.92
2023-03-05T06:41:17.420Z,17.48
2023-03-05T06:43:44.874Z,14.45
2023-03-05T06:46:13.571Z,19.42
2023-03-05T06:48:40.359Z,16.83
2023-03-05T06:51:14.263Z,14.77
2023-03-05T06:53:41.219Z,16.77
2023-03-05T06:56:08.434Z,17.00
2023-03-05T06:58:35.228Z,19.83
2023-03-05T07:01:04.406Z,15.98
2023-03-05T07:03:31.196Z,15.48
2023-03-05T07:05:58.276Z,18.58
2023-03-05T07:08:25.004Z,19.13
2023-03-05T07:10:52.091Z,15.82
2023-03-05T07:13:18.863Z,19.25
2023-03-05T07:15:46.039Z,21.58
2023-03-05T07:18:12.812Z,15.48
2023-03-05T07:20:39.915Z,19.08
2023-03-05T07:23:06.673Z,15.43
2023-03-05T07:25:36.041Z,18.98
2023-03-05T07:28:05.415Z,19.92
2023-03-05T07:30:33.643Z,19.85
2023-03-05T07:33:00.454Z,21.42
2023-03-05T07:35:27.502Z,16.58
2023-03-05T07:37:55.858Z,17.52
2023-03-05T07:40:23.052Z,22.02
2023-03-05T07:42:49.813Z,21.42
2023-03-05T07:45:16.904Z,21.23
2023-03-05T07:47:43.701Z,20.38
2023-03-05T07:50:11.310Z,20.80
2023-03-05T07:52:38.140Z,23.55
2023-03-05T07:55:05.462Z,21.23
2023-03-05T07:57:35.500Z,20.85
2023-03-05T08:00:02.590Z,22.70
2023-03-05T08:02:29.789Z,22.20
2023-03-05T08:04:56.973Z,22.23
2023-03-05T08:07:23.718Z,29.17
2023-03-05T08:09:50.830Z,29.42
2023-03-05T08:12:17.680Z,23.35
2023-03-05T08:14:44.815Z,29.08
2023-03-05T08:17:11.613Z,23.02
2023-03-05T08:19:38.771Z,24.38
2023-03-05T08:22:05.640Z,24.25
2023-03-05T08:24:32.696Z,19.25
2023-03-05T08:26:59.549Z,23.88
2023-03-05T08:29:26.876Z,22.85
2023-03-05T08:31:54.072Z,22.30
2023-03-05T08:34:21.380Z,24.67
2023-03-05T08:36:48.937Z,23.60
2023-03-05T08:39:16.508Z,21.98
2023-03-05T08:41:43.306Z,26.55
2023-03-05T08:44:10.411Z,23.13
2023-03-05T08:46:39.522Z,28.10
2023-03-05T08:49:07.469Z,24.88
2023-03-05T08:51:34.822Z,24.48
2023-03-05T08:54:02.537Z,24.35
2023-03-05T08:56:31.423Z,24.90
2023-03-05T08:58:58.507Z,23.55
2023-03-05T09:01:25.325Z,26.08
2023-03-05T09:03:52.472Z,24.48
2023-03-05T09:06:19.200Z,26.60
2023-03-05T09:08:46.266Z,27.63
2023-03-05T09:11:13.179Z,27.10
2023-03-05T09:13:40.346Z,26.75
2023-03-05T09:16:09.106Z,24.05
2023-03-05T09:18:40.232Z,26.00
2023-03-05T09:21:16.982Z,25.25
2023-03-05T09:23:44.378Z,24.58
2023-03-05T09:26:12.263Z,26.58
2023-03-05T09:28:39.966Z,29.13
2023-03-05T09:31:07.798Z,24.00
2023-03-05T09:33:35.800Z,27.33
2023-03-05T09:36:02.752Z,26.25
2023-03-05T09:38:29.828Z,25.25
2023-03-05T09:41:07.834Z,26.48
2023-03-05T09:43:59.454Z,24.98
2023-03-05T09:46:51.682Z,26.85
2023-03-05T09:49:50.920Z,26.17
2023-03-05T09:52:22.214Z,26.42
2023-03-05T09:54:53.049Z,24.75
2023-03-05T09:57:22.748Z,25.65
2023-03-05T09:59:56.063Z,28.00
2023-03-05T10:02:23.948Z,24.45
2023-03-05T10:05:00.888Z,26.15
2023-03-05T10:07:28.845Z,26.45
2023-03-05T10:10:10.084Z,29.55
2023-03-05T10:12:46.522Z,25.80
2023-03-05T10:15:30.527Z,24.77
2023-03-05T10:18:16.872Z,31.80
2023-03-05T10:20:51.645Z,23.33
2023-03-05T10:23:26.988Z,27.60
2023-03-05T10:26:11.320Z,26.48
2023-03-05T10:28:50.004Z,29.63
2023-03-05T10:31:46.836Z,27.63
2023-03-05T10:34:27.988Z,25.60
2023-03-05T10:36:58.441Z,23.67
2023-03-05T10:40:10.957Z,22.77
2023-03-05T10:42:56.620Z,26.52
2023-03-05T10:45:26.715Z,23.02
2023-03-05T10:48:05.520Z,24.23
2023-03-05T10:50:36.254Z,25.02
2023-03-05T10:53:10.592Z,30.23
2023-03-05T10:55:37.377Z,24.42
2023-03-05T10:58:11.527Z,24.85
2023-03-05T11:00:38.344Z,22.13
2023-03-05T11:03:07.330Z,27.25
2023-03-05T11:05:42.637Z,28.67
2023-03-05T11:08:36.255Z,27.45
2023-03-05T11:11:10.464Z,28.77
2023-03-05T11:13:44.025Z,29.83
2023-03-05T11:16:21.228Z,28.88
2023-03-05T11:18:48.686Z,32.47
2023-03-05T11:21:19.820Z,23.73
2023-03-05T11:24:06.930Z,25.33
2023-03-05T11:26:33.725Z,24.40
2023-03-05T11:29:03.249Z,21.40
2023-03-05T11:31:31.684Z,18.98
2023-03-05T11:34:00.028Z,21.05
2023-03-05T11:36:37.165Z,19.52
2023-03-05T11:39:10.536Z,16.30
2023-03-05T11:41:38.460Z,17.00
2023-03-05T11:44:13.873Z,15.93
2023-03-05T11:46:47.101Z,15.15
2023-03-05T11:49:22.771Z,16.70
2023-03-05T11:54:26.813Z,17.27
2023-03-05T11:56:53.645Z,17.30
2023-03-05T11:59:25.058Z,18.02
2023-03-05T12:01:53.449Z,13.65
2023-03-05T12:04:20.735Z,15.35
2023-03-05T12:06:55.074Z,14.95
2023-03-05T12:09:31.240Z,13.93
2023-03-05T12:12:06.888Z,12.20
2023-03-05T12:14:45.405Z,15.48
2023-03-05T12:17:21.229Z,15.77
2023-03-05T12:20:06.568Z,15.45
2023-03-05T12:22:40.892Z,14.50
2023-03-05T12:25:35.157Z,12.15
2023-03-05T12:28:02.190Z,12.80
2023-03-05T12:30:35.364Z,13.98
2023-03-05T12:33:03.636Z,13.98
2023-03-05T12:35:31.994Z,10.70
2023-03-05T12:38:48.187Z,11.75
2023-03-05T12:41:25.819Z,13.40
2023-03-05T12:44:05.639Z,13.30
2023-03-05T12:46:40.045Z,11.93
2023-03-05T12:49:19.220Z,14.32
2023-03-05T12:51:49.722Z,9.77
2023-03-05T12:54:32.825Z,12.55
2023-03-05T12:57:15.187Z,11.07
2023-03-05T12:59:48.767Z,11.75
2023-03-05T13:02:40.069Z,12.98
2023-03-05T13:05:27.323Z,11.90
2023-03-05T13:07:55.075Z,15.40
2023-03-05T13:10:27.386Z,9.80
2023-03-05T13:12:56.206Z,13.45
2023-03-05T13:15:23.904Z,11.75
2023-03-05T13:17:57.503Z,14.65
2023-03-05T13:20:39.450Z,10.55
2023-03-05T13:23:25.220Z,12.43
2023-03-05T13:25:59.174Z,13.57
2023-03-05T13:28:26.603Z,10.80
2023-03-05T13:30:55.158Z,12.95
2023-03-05T13:33:26.314Z,14.48
2023-03-05T13:35:54.138Z,14.23
2023-03-05T13:38:23.554Z,13.35
2023-03-05T13:41:06.517Z,13.60
2023-03-05T13:43:33.816Z,15.88
2023-03-05T13:46:03.893Z,15.02
2023-03-05T13:48:31.074Z,14.68
2023-03-05T13:50:58.235Z,16.35
2023-03-05T13:53:30.046Z,13.77
2023-03-05T13:55:58.592Z,13.65
2023-03-05T13:58:48.076Z,12.90
2023-03-05T14:01:21.076Z,12.93
2023-03-05T14:03:52.789Z,13.95
2023-03-05T14:06:20.958Z,11.05
2023-03-05T14:08:52.196Z,12.38
2023-03-05T14:11:19.095Z,12.88
2023-03-05T14:13:47.273Z,9.55
2023-03-05T14:16:15.090Z,12.13
2023-03-05T14:18:56.293Z,10.73
2023-03-05T14:21:23.441Z,10.65
2023-03-05T14:23:55.052Z,8.55
2023-03-05T14:26:30.600Z,10.35
2023-03-05T14:29:00.637Z,9.57
2023-03-05T14:31:28.601Z,9.43
2023-03-05T14:34:01.111Z,8.30
2023-03-05T14:36:29.177Z,7.78
2023-03-05T14:38:56.975Z,10.07
2023-03-05T14:41:40.762Z,7.75
2023-03-05T14:44:15.822Z,9.32
2023-03-05T14:46:43.041Z,9.13
2023-03-05T14:49:10.406Z,10.80
2023-03-05T14:51:42.781Z,12.07
2023-03-05T14:54:24.327Z,12.43
2023-03-05T14:56:51.277Z,13.55
2023-03-05T14:59:19.051Z,12.55
2023-03-05T15:01:45.909Z,21.13
2023-03-05T15:04:15.794Z,18.52
2023-03-05T15:06:45.371Z,18.20
2023-03-05T15:09:12.595Z,19.27
2023-03-05T15:11:39.508Z,28.70
2023-03-05T15:14:06.917Z,21.45
2023-03-05T15:16:34.591Z,25.27
2023-03-05T15:19:03.692Z,24.95
2023-03-05T15:21:30.590Z,20.85
2023-03-05T15:23:57.735Z,15.05
2023-03-05T15:26:24.649Z,18.48
2023-03-05T15:28:51.867Z,18.25
2023-03-05T15:31:18.790Z,17.13
2023-03-05T15:33:45.907Z,15.57
2023-03-05T15:36:13.713Z,13.18
2023-03-05T15:38:41.759Z,15.60
2023-03-05T15:41:08.701Z,14.40
2023-03-05T15:43:37.031Z,14.82
2023-03-05T15:46:05.884Z,16.33
2023-03-05T15:48:33.139Z,17.23
2023-03-05T15:51:00.008Z,13.95
2023-03-05T15:53:27.154Z,13.35
2023-03-05T15:55:54.060Z,14.90
2023-03-05T15:58:21.793Z,15.93
2023-03-05T16:00:49.143Z,17.02
2023-03-05T16:03:16.399Z,15.20
2023-03-05T16:05:43.342Z,16.25
2023-03-05T16:08:10.555Z,10.98
2023-03-05T16:10:39.558Z,13.82
2023-03-05T16:13:12.359Z,18.85
2023-03-05T16:15:39.820Z,15.05
2023-03-05T16:18:08.498Z,15.75
2023-03-05T16:20:36.392Z,17.05
2023-03-05T16:23:04.423Z,17.20
2023-03-05T16:25:31.462Z,18.33
2023-03-05T16:27:58.660Z,13.18
2023-03-05T16:30:25.594Z,17.50
2023-03-05T16:32:53.790Z,17.58
2023-03-05T16:35:20.876Z,22.45
2023-03-05T16:37:48.083Z,21.95
2023-03-05T16:40:15.347Z,22.95
2023-03-05T16:42:42.844Z,21.33
2023-03-05T16:45:10.651Z,25.83
2023-03-05T16:47:38.442Z,25.05
2023-03-05T16:50:06.154Z,24.60
2023-03-05T16:52:33.413Z,28.90
2023-03-05T16:55:00.405Z,22.35
2023-03-05T16:57:28.997Z,25.38
2023-03-05T16:59:56.422Z,26.48
2023-03-05T17:02:23.190Z,25.83
2023-03-05T17:04:50.771Z,27.75
2023-03-05T17:07:18.090Z,24.90
2023-03-05T17:09:46.421Z,26.20
2023-03-05T17:12:13.310Z,27.20
2023-03-05T17:14:40.594Z,23.45
2023-03-05T17:17:07.678Z,26.33
2023-03-05T17:19:34.925Z,27.98
2023-03-05T17:22:02.264Z,26.23
2023-03-05T17:24:30.440Z,26.08
2023-03-05T17:26:57.336Z,28.20
2023-03-05T17:29:24.897Z,27.02
2023-03-05T17:31:53.374Z,27.35
2023-03-05T17:34:33.316Z,29.42
2023-03-05T17:37:00.930Z,29.23
2023-03-05T17:39:28.131Z,27.70
2023-03-05T17:41:54.934Z,30.17
2023-03-05T17:44:22.089Z,26.90
2023-03-05T17:46:48.981Z,32.65
2023-03-05T17:49:16.127Z,28.73
2023-03-05T17:51:43.145Z,27.65
2023-03-05T17:54:10.458Z,28.58
2023-03-05T17:56:37.360Z,31.02
2023-03-05T17:59:04.504Z,29.90
2023-03-05T18:01:32.933Z,30.33
2023-03-05T18:04:00.387Z,27.27
2023-03-05T18:06:27.405Z,30.48
2023-03-05T18:08:54.564Z,30.73
2023-03-05T18:11:21.470Z,28.73
2023-03-05T18:13:48.720Z,25.67
2023-03-05T18:16:17.103Z,27.63
2023-03-05T18:18:44.630Z,27.17
2023-03-05T18:21:11.703Z,27.05
2023-03-05T18:23:38.942Z,26.73
2023-03-05T18:26:05.901Z,22.65
2023-03-05T18:28:33.280Z,26.45
2023-03-05T18:31:00.956Z,26.90
2023-03-05T18:33:28.168Z,25.52
2023-03-05T18:39:16.547Z,28.98
2023-03-05T18:41:43.422Z,26.73
2023-03-05T18:44:11.120Z,28.85
2023-03-05T18:46:38.093Z,25.75
2023-03-05T18:49:05.477Z,28.85
2023-03-05T18:51:32.556Z,26.00
2023-03-05T18:53:59.768Z,26.38
2023-03-05T18:56:26.674Z,32.33
2023-03-05T18:58:53.928Z,28.58
2023-03-05T19:01:20.884Z,29.45
2023-03-05T19:03:49.224Z,28.42
2023-03-05T19:06:17.778Z,26.27
2023-03-05T19:08:45.325Z,30.42
2023-03-05T19:11:20.057Z,26.65
2023-03-05T19:13:51.131Z,28.35
2023-03-05T19:16:27.817Z,30.73
2023-03-05T19:19:16.623Z,30.10
2023-03-05T19:21:45.640Z,26.98
2023-03-05T19:24:13.024Z,30.90
2023-03-05T19:26:39.962Z,30.38
2023-03-05T19:29:07.411Z,29.48
2023-03-05T19:31:34.447Z,29.83
2023-03-05T19:34:01.974Z,31.92
2023-03-05T19:36:29.623Z,32.28
2023-03-05T19:38:56.821Z,30.02
2023-03-05T19:41:24.138Z,31.98
2023-03-05T19:43:51.341Z,34.75
2023-03-05T19:46:18.453Z,34.83
2023-03-05T19:48:45.845Z,32.33
2023-03-05T19:51:19.779Z,37.80
2023-03-05T19:53:47.139Z,34.95
2023-03-05T19:56:16.376Z,34.40
2023-03-05T19:58:47.649Z,33.70
2023-03-05T20:01:16.580Z,34.38
2023-03-05T20:03:47.805Z,35.95
2023-03-05T20:06:14.881Z,31.50
2023-03-05T20:08:42.114Z,36.08
2023-03-05T20:11:10.422Z,39.78
2023-03-05T20:13:38.155Z,37.67
2023-03-05T20:16:06.169Z,32.97
2023-03-05T20:18:33.723Z,36.88
2023-03-05T20:21:02.826Z,38.47
2023-03-05T20:23:30.236Z,32.08
2023-03-05T20:25:57.236Z,34.72
2023-03-05T20:28:26.381Z,36.42
2023-03-05T20:30:57.831Z,39.40
2023-03-05T20:33:25.353Z,35.03
2023-03-05T20:35:53.501Z,38.80
2023-03-05T20:38:21.657Z,35.33
2023-03-05T20:40:56.037Z,34.38
2023-03-05T20:43:23.477Z,39.35
2023-03-05T20:45:50.552Z,34.00
2023-03-05T20:48:17.686Z,34.35
2023-03-05T20:50:46.756Z,32.38
2023-03-05T20:53:14.364Z,39.38
2023-03-05T20:55:41.844Z,40.53
2023-03-05T20:58:09.228Z,35.70
2023-03-05T21:00:36.431Z,46.25
2023-03-05T21:03:03.657Z,41.95
2023-03-05T21:05:30.489Z,37.75
2023-03-05T21:07:58.513Z,38.35
2023-03-05T21:10:25.578Z,39.20
2023-03-05T21:12:52.984Z,40.58
2023-03-05T21:15:22.338Z,38.22
2023-03-05T21:17:50.559Z,37.20
2023-03-05T21:20:20.224Z,38.33
2023-03-05T21:22:47.357Z,40.10
2023-03-05T21:25:24.853Z,36.67
2023-03-05T21:27:55.481Z,36.22
2023-03-05T21:30:22.494Z,36.17
2023-03-05T21:32:49.903Z,34.58
2023-03-05T21:35:21.230Z,32.47
2023-03-05T21:37:48.449Z,34.60
2023-03-05T21:40:16.942Z,33.50
2023-03-05T21:42:44.232Z,32.42
2023-03-05T21:45:13.401Z,32.60
2023-03-05T21:47:40.386Z,36.03
2023-03-05T21:50:08.027Z,32.00
2023-03-05T21:52:34.938Z,33.75
2023-03-05T21:55:02.146Z,31.63
2023-03-05T21:57:29.314Z,29.98
2023-03-05T21:59:56.915Z,31.35
2023-03-05T22:02:24.086Z,28.20
2023-03-05T22:04:51.401Z,29.38
2023-03-05T22:07:18.631Z,27.50
2023-03-05T22:09:46.098Z,30.88
2023-03-05T22:13:11.400Z,27.08
2023-03-05T22:15:57.539Z,28.27
2023-03-05T22:18:29.094Z,28.80
2023-03-05T22:20:56.571Z,27.52
2023-03-05T22:23:24.466Z,30.80
2023-03-05T22:26:02.758Z,30.48
2023-03-05T22:28:29.631Z,27.50
2023-03-05T22:30:56.784Z,30.10
2023-03-05T22:33:23.659Z,30.23
2023-03-05T22:35:50.883Z,25.00
2023-03-05T22:38:17.752Z,27.10
2023-03-05T22:40:46.237Z,27.67
2023-03-05T22:43:13.736Z,29.92
2023-03-05T22:45:40.919Z,26.63
2023-03-05T22:48:09.857Z,27.35
2023-03-05T22:50:40.767Z,30.40
2023-03-05T22:53:07.692Z,24.67
2023-03-05T22:55:34.905Z,32.63
2023-03-05T22:58:01.663Z,23.52
2023-03-05T23:00:28.730Z,28.20
2023-03-05T23:02:55.636Z,26.15
2023-03-05T23:05:22.779Z,28.08
2023-03-05T23:07:49.799Z,24.55
2023-03-05T23:10:26.969Z,26.10
2023-03-05T23:12:54.667Z,29.35
2023-03-05T23:15:26.852Z,24.40
2023-03-05T23:17:53.615Z,24.65
2023-03-05T23:20:22.791Z,23.30
2023-03-05T23:22:49.690Z,23.73
2023-03-05T23:25:16.834Z,26.30
2023-03-05T23:27:43.805Z,24.15
2023-03-05T23:30:17.426Z,22.10
2023-03-05T23:32:46.155Z,23.00
2023-03-05T23:35:13.862Z,26.70
2023-03-05T23:37:41.218Z,28.02
2023-03-05T23:40:09.851Z,25.58
2023-03-05T23:42:38.201Z,25.00
2023-03-05T23:45:10.073Z,21.48
2023-03-05T23:47:37.172Z,24.02
2023-03-05T23:50:05.813Z,19.73
2023-03-05T23:52:33.070Z,18.88
2023-03-05T23:55:00.223Z,20.52
2023-03-05T23:57:27.258Z,23.73
2023-03-05T23:59:54.541Z,25.92
